Time;durP1;ratioP1;P1;durP2;ratioP2;P2;SDS_P1;SDS_P2;PMS_P1;PMS_P2;Temp;Humidity;BMP_temperature;BMP_pressure;BME280_temperature;BME280_humidity;BME280_pressure;Samples;Min_cycle;Max_cycle;Signal;HPM_P1;HPM_P2
2021/08/19 00:00:21;;;;;;;1.25;1.10;;;;;;;22.46;53.54;101340.19;4956554;29;20027;-73
2021/08/19 00:02:46;;;;;;;1.48;0.98;;;;;;;22.45;53.42;101343.72;4956535;29;20086;-73
2021/08/19 00:05:12;;;;;;;1.90;1.13;;;;;;;22.44;53.53;101342.88;4956473;29;20366;-73
2021/08/19 00:07:37;;;;;;;1.05;0.90;;;;;;;22.44;53.60;101339.34;4939107;29;20023;-73
2021/08/19 00:10:04;;;;;;;0.95;0.80;;;;;;;22.45;53.62;101341.09;4939491;29;20023;-73
2021/08/19 00:12:30;;;;;;;1.38;1.25;;;;;;;22.39;53.50;101325.34;4956288;29;20027;-73
2021/08/19 00:14:55;;;;;;;1.30;0.85;;;;;;;22.44;53.65;101334.09;4939155;29;20038;-73
2021/08/19 00:17:20;;;;;;;1.10;0.80;;;;;;;22.42;53.78;101325.31;4956360;29;20035;-73
2021/08/19 00:19:46;;;;;;;1.70;1.40;;;;;;;22.43;53.59;101334.97;4938971;29;20118;-72
2021/08/19 00:22:11;;;;;;;0.98;0.80;;;;;;;22.44;53.53;101334.09;4956037;29;20035;-72
2021/08/19 00:24:37;;;;;;;1.33;1.00;;;;;;;22.44;53.53;101327.06;4956108;29;20033;-73
2021/08/19 00:27:02;;;;;;;1.20;0.98;;;;;;;22.44;53.63;101323.53;4956101;29;20039;-73
2021/08/19 00:29:28;;;;;;;0.80;0.60;;;;;;;22.43;53.53;101327.94;4938846;29;20023;-73
2021/08/19 00:31:54;;;;;;;1.52;1.00;;;;;;;22.43;53.48;101324.44;4923324;29;20046;-73
2021/08/19 00:34:19;;;;;;;1.58;1.08;;;;;;;22.44;53.47;101328.81;4955812;29;20138;-74
2021/08/19 00:36:44;;;;;;;1.42;0.73;;;;;;;22.44;53.65;101328.81;4922874;29;20042;-73
2021/08/19 00:39:10;;;;;;;1.70;1.00;;;;;;;22.40;53.54;101324.47;4922684;29;20031;-73
2021/08/19 00:41:35;;;;;;;1.20;0.85;;;;;;;22.42;53.55;101327.97;4938649;29;20055;-73
2021/08/19 00:44:01;;;;;;;1.30;0.90;;;;;;;22.43;53.63;101330.56;4938493;29;20039;-72
2021/08/19 00:46:35;;;;;;;1.00;0.80;;;;;;;22.41;53.65;101326.22;4938585;29;20035;-73
2021/08/19 00:49:05;;;;;;;0.70;0.60;;;;;;;22.44;53.58;101326.19;4938510;29;20042;-73
2021/08/19 00:51:52;;;;;;;1.67;1.30;;;;;;;22.43;53.58;101325.31;4938530;29;20082;-73
2021/08/19 00:54:28;;;;;;;1.08;0.90;;;;;;;22.43;53.49;101322.66;4938465;29;20020;-73
2021/08/19 00:57:01;;;;;;;1.10;0.80;;;;;;;22.40;53.68;101313.94;4955639;29;20445;-73
2021/08/19 00:59:28;;;;;;;1.13;0.77;;;;;;;22.43;53.44;101322.66;4938382;29;20029;-73
2021/08/19 01:01:58;;;;;;;1.30;0.85;;;;;;;22.40;53.46;101308.66;4955413;29;20500;-72
2021/08/19 01:04:23;;;;;;;1.83;1.00;;;;;;;22.39;53.59;101306.91;4922484;29;20043;-72
2021/08/19 01:06:49;;;;;;;1.13;0.75;;;;;;;22.41;53.60;101316.53;4922350;29;20043;-73
2021/08/19 01:09:16;;;;;;;1.20;0.80;;;;;;;22.42;53.65;101309.50;4955684;29;20090;-73
2021/08/19 01:11:43;;;;;;;1.40;0.80;;;;;;;22.43;53.54;101309.50;4956635;29;20038;-73
2021/08/19 01:14:10;;;;;;;1.67;1.13;;;;;;;22.41;53.40;101310.41;4938674;29;20027;-73
2021/08/19 01:16:35;;;;;;;1.25;0.85;;;;;;;22.41;53.61;101305.13;4922595;29;20378;-73
2021/08/19 01:19:01;;;;;;;1.50;1.13;;;;;;;22.40;53.54;101306.03;4922275;29;20028;-73
2021/08/19 01:21:27;;;;;;;1.23;0.73;;;;;;;22.42;53.64;101317.41;4955407;29;20504;-73
2021/08/19 01:23:52;;;;;;;1.30;0.80;;;;;;;22.35;53.65;101299.94;4955382;29;20045;-73
2021/08/19 01:26:20;;;;;;;2.05;0.70;;;;;;;22.42;53.66;101309.50;4938457;29;20043;-73
2021/08/19 01:28:46;;;;;;;1.23;0.82;;;;;;;22.43;53.63;101312.13;4955588;29;20042;-73
2021/08/19 01:31:18;;;;;;;1.00;0.90;;;;;;;22.42;53.61;101313.00;4922085;29;20037;-73
2021/08/19 01:33:45;;;;;;;1.83;0.88;;;;;;;22.18;53.63;101271.19;4955038;29;20094;-73
2021/08/19 01:36:13;;;;;;;1.20;0.82;;;;;;;22.42;53.55;101312.16;4955383;29;20078;-73
2021/08/19 01:38:39;;;;;;;1.52;0.93;;;;;;;22.42;53.64;101310.38;4938088;29;20043;-73
2021/08/19 01:41:05;;;;;;;1.10;0.80;;;;;;;22.43;53.70;101314.75;4955455;29;20042;-73
2021/08/19 01:43:32;;;;;;;0.95;0.70;;;;;;;22.42;53.63;101312.16;4922266;29;20027;-73
2021/08/19 01:46:02;;;;;;;1.75;1.02;;;;;;;22.41;53.78;101319.19;4937912;29;20040;-73
2021/08/19 01:48:28;;;;;;;1.23;0.88;;;;;;;22.38;53.80;101311.31;4938136;29;20031;-73
2021/08/19 01:50:54;;;;;;;1.23;0.85;;;;;;;22.37;53.74;101304.28;4937993;29;20027;-73
2021/08/19 01:53:20;;;;;;;1.23;0.98;;;;;;;22.42;53.72;101314.78;4938109;29;20429;-73
2021/08/19 01:55:49;;;;;;;0.75;0.65;;;;;;;22.35;53.59;101298.16;4938160;29;20038;-73
2021/08/19 01:58:17;;;;;;;1.55;1.02;;;;;;;22.38;53.91;101300.75;4938411;29;20027;-73
2021/08/19 02:00:42;;;;;;;1.00;0.80;;;;;;;22.38;53.70;101303.41;4938191;29;20366;-73
2021/08/19 02:03:08;;;;;;;0.70;0.60;;;;;;;22.43;53.66;101314.75;4954995;29;20085;-72
2021/08/19 02:05:36;;;;;;;1.80;1.10;;;;;;;22.43;53.69;101312.13;4954933;29;20035;-73
2021/08/19 02:08:01;;;;;;;0.90;0.73;;;;;;;22.38;53.60;101300.75;4954949;29;20027;-73
2021/08/19 02:10:27;;;;;;;1.10;0.85;;;;;;;22.42;53.67;101298.97;4937956;29;20039;-73
2021/08/19 02:12:52;;;;;;;1.05;0.68;;;;;;;22.43;53.66;101305.97;4955039;29;20440;-73
2021/08/19 02:15:17;;;;;;;1.30;1.00;;;;;;;22.39;53.82;101301.63;4937741;29;20042;-73
2021/08/19 02:17:43;;;;;;;1.15;0.90;;;;;;;22.39;53.66;101296.38;4938159;29;20085;-73
2021/08/19 02:20:09;;;;;;;1.10;0.93;;;;;;;22.41;53.73;101297.22;4925517;29;20058;-73
2021/08/19 02:22:34;;;;;;;2.03;0.70;;;;;;;22.37;53.56;101293.75;4958891;29;20496;-79
2021/08/19 02:24:59;;;;;;;1.10;0.70;;;;;;;22.39;53.75;101291.09;4958781;29;20038;-78
2021/08/19 02:27:26;;;;;;;1.85;1.05;;;;;;;22.41;53.74;101295.47;4941539;29;20042;-79
2021/08/19 02:29:52;;;;;;;1.23;0.90;;;;;;;22.40;53.74;101292.84;4941966;29;20409;-79
2021/08/19 02:32:18;;;;;;;1.48;0.90;;;;;;;22.40;53.81;101285.81;4942009;29;20027;-78
2021/08/19 02:34:43;;;;;;;2.45;0.82;;;;;;;22.39;53.79;101280.56;4941847;29;20134;-79
2021/08/19 02:37:08;;;;;;;1.00;0.82;;;;;;;22.42;53.78;101285.78;4925862;29;20190;-79
2021/08/19 02:39:34;;;;;;;1.20;1.10;;;;;;;22.38;53.81;101284.94;4958793;29;20034;-78
2021/08/19 02:41:59;;;;;;;1.38;1.10;;;;;;;22.39;53.75;101289.34;4941714;29;20552;-78
2021/08/19 02:44:25;;;;;;;1.08;0.90;;;;;;;22.42;53.68;101280.53;4958616;29;20045;-79
2021/08/19 02:46:50;;;;;;;1.55;0.95;;;;;;;22.41;53.66;101282.28;4958819;29;20035;-78
2021/08/19 02:49:15;;;;;;;0.90;0.68;;;;;;;22.37;53.71;101277.94;4958774;29;20027;-79
2021/08/19 02:51:41;;;;;;;1.00;0.90;;;;;;;22.39;53.87;101281.44;4958496;29;20042;-78
2021/08/19 02:54:06;;;;;;;1.20;0.95;;;;;;;22.39;53.73;101275.28;4925492;29;20051;-79
2021/08/19 02:56:32;;;;;;;1.10;0.80;;;;;;;22.41;53.84;101278.78;4941303;29;20114;-78
2021/08/19 02:58:57;;;;;;;1.15;1.05;;;;;;;22.42;53.76;101280.53;4958270;29;20033;-78
2021/08/19 03:01:22;;;;;;;1.23;0.93;;;;;;;22.38;53.75;101273.53;4941228;29;20386;-78
2021/08/19 03:03:48;;;;;;;1.58;0.90;;;;;;;22.37;53.63;101272.66;4958033;29;20074;-79
2021/08/19 03:06:13;;;;;;;1.02;0.90;;;;;;;22.41;53.72;101274.38;4925090;29;20482;-77
2021/08/19 03:08:39;;;;;;;1.00;0.70;;;;;;;22.42;53.72;101277.88;4957999;29;20035;-78
2021/08/19 03:11:04;;;;;;;0.80;0.70;;;;;;;22.38;53.69;101269.13;4940580;29;20035;-79
2021/08/19 03:13:29;;;;;;;0.90;0.70;;;;;;;22.41;53.79;101270.88;4924698;29;20031;-79
2021/08/19 03:15:55;;;;;;;1.33;0.90;;;;;;;22.37;53.76;101267.41;4940795;29;20059;-78
2021/08/19 03:18:20;;;;;;;1.13;0.80;;;;;;;22.40;53.74;101267.38;4940597;29;20059;-79
2021/08/19 03:20:46;;;;;;;1.10;0.75;;;;;;;22.40;53.86;101280.53;4957743;29;20050;-79
2021/08/19 03:23:11;;;;;;;1.63;1.10;;;;;;;22.32;53.72;101258.72;4940766;29;20031;-79
2021/08/19 03:25:37;;;;;;;1.60;0.90;;;;;;;22.37;53.69;101266.53;4942933;29;20114;-78
2021/08/19 03:28:04;;;;;;;1.10;0.80;;;;;;;22.37;53.77;101267.41;4927757;29;20470;-78
2021/08/19 03:30:31;;;;;;;1.38;0.90;;;;;;;22.37;53.82;101263.91;4942216;29;20470;-79
2021/08/19 03:32:57;;;;;;;1.20;1.00;;;;;;;22.37;53.83;101254.22;4959362;29;20052;-79
2021/08/19 03:35:23;;;;;;;2.05;0.95;;;;;;;22.39;53.85;101267.38;4941705;29;20494;-78
2021/08/19 03:37:49;;;;;;;1.33;0.88;;;;;;;22.40;53.79;101270.00;4941530;29;20059;-78
2021/08/19 03:40:14;;;;;;;1.10;0.70;;;;;;;22.40;53.53;101262.09;4941737;29;20050;-79
2021/08/19 03:42:40;;;;;;;1.63;0.98;;;;;;;22.35;53.72;101252.50;4941096;29;20394;-79
2021/08/19 03:45:09;;;;;;;1.23;0.90;;;;;;;22.36;53.82;101256.88;4958192;29;20027;-79
2021/08/19 03:47:34;;;;;;;1.55;0.90;;;;;;;22.39;53.84;101270.88;4941115;29;20058;-78
2021/08/19 03:49:59;;;;;;;1.75;1.33;;;;;;;22.37;53.81;101256.00;4940986;29;20145;-79
2021/08/19 03:52:25;;;;;;;0.75;0.70;;;;;;;22.40;53.61;101261.22;4940639;29;20119;-78
2021/08/19 03:54:51;;;;;;;1.10;0.90;;;;;;;22.37;53.80;101256.84;4940622;29;20063;-77
2021/08/19 03:57:16;;;;;;;1.52;0.95;;;;;;;22.39;53.79;101264.75;4925044;29;20437;-78
2021/08/19 03:59:42;;;;;;;1.30;1.00;;;;;;;22.39;53.91;101268.25;4940487;29;20035;-79
2021/08/19 04:02:07;;;;;;;0.88;0.60;;;;;;;22.37;53.97;101266.53;4941626;29;20027;-78
2021/08/19 04:04:33;;;;;;;1.15;0.90;;;;;;;22.39;53.82;101270.88;4959389;29;20516;-77
2021/08/19 04:06:58;;;;;;;1.15;0.85;;;;;;;22.39;53.69;101265.63;4958825;29;20031;-77
2021/08/19 04:09:24;;;;;;;0.75;0.75;;;;;;;22.39;53.85;101257.72;4941398;29;20050;-78
2021/08/19 04:11:49;;;;;;;1.02;0.95;;;;;;;22.35;53.95;101263.91;4958463;29;20035;-79
2021/08/19 04:14:14;;;;;;;0.77;0.77;;;;;;;22.39;53.92;101259.47;4958515;29;20076;-79
2021/08/19 04:16:40;;;;;;;0.93;0.80;;;;;;;22.36;53.89;101259.50;4925198;29;20059;-79
2021/08/19 04:19:05;;;;;;;1.25;1.00;;;;;;;22.39;53.87;101257.72;4941059;29;20039;-79
2021/08/19 04:21:30;;;;;;;3.08;0.85;;;;;;;22.36;53.92;101257.75;4925385;29;20027;-78
2021/08/19 04:23:56;;;;;;;1.42;1.20;;;;;;;22.38;53.92;101268.28;4957786;29;20363;-78
2021/08/19 04:26:21;;;;;;;1.10;0.90;;;;;;;22.37;53.85;101262.13;4924545;29;20035;-79
2021/08/19 04:28:46;;;;;;;1.20;0.90;;;;;;;22.38;53.85;101265.63;4957463;29;20162;-78
2021/08/19 04:31:12;;;;;;;1.00;0.90;;;;;;;22.38;53.88;101269.13;4957694;29;20034;-78
2021/08/19 04:33:37;;;;;;;1.20;0.70;;;;;;;22.38;54.00;101265.63;4940202;29;20063;-79
2021/08/19 04:36:03;;;;;;;1.77;1.30;;;;;;;22.38;53.94;101265.63;4940236;29;20039;-79
2021/08/19 04:38:29;;;;;;;1.23;0.77;;;;;;;22.33;53.86;101260.41;4957038;29;20036;-78
2021/08/19 04:40:55;;;;;;;1.00;0.80;;;;;;;22.36;54.13;101264.78;4924278;29;20070;-79
2021/08/19 04:43:21;;;;;;;1.23;0.80;;;;;;;22.35;53.90;101257.75;4940058;29;20028;-78
2021/08/19 04:45:47;;;;;;;1.10;0.77;;;;;;;22.32;54.05;101260.47;4939609;29;20027;-78
2021/08/19 04:48:12;;;;;;;1.80;1.00;;;;;;;22.35;53.92;101268.31;4939534;29;20054;-78
2021/08/19 04:50:38;;;;;;;2.03;1.50;;;;;;;22.34;54.11;101259.53;4939874;29;20031;-78
2021/08/19 04:53:04;;;;;;;1.08;0.90;;;;;;;22.35;53.92;101263.91;4939574;29;20031;-79
2021/08/19 04:55:29;;;;;;;1.63;1.10;;;;;;;22.37;53.99;101271.78;4924065;29;20043;-78
2021/08/19 04:57:54;;;;;;;1.45;0.70;;;;;;;22.37;53.94;101274.44;4939377;29;20510;-78
2021/08/19 05:00:20;;;;;;;1.65;1.20;;;;;;;22.34;54.13;101264.81;4939283;29;20031;-79
2021/08/19 05:02:45;;;;;;;0.95;0.82;;;;;;;22.34;53.91;101267.44;4907586;29;20027;-77
2021/08/19 05:05:11;;;;;;;1.73;1.20;;;;;;;22.37;53.94;101272.66;4923171;29;20028;-79
2021/08/19 05:07:36;;;;;;;1.23;0.90;;;;;;;22.37;54.02;101267.41;4956099;29;20390;-77
2021/08/19 05:10:02;;;;;;;1.13;0.80;;;;;;;22.33;54.04;101256.94;4938990;29;20086;-78
2021/08/19 05:12:28;;;;;;;0.98;0.63;;;;;;;22.36;53.88;101263.03;4938906;29;20038;-78
2021/08/19 05:14:53;;;;;;;1.27;1.10;;;;;;;22.35;53.89;101263.03;4939146;29;20027;-79
2021/08/19 05:17:18;;;;;;;1.23;0.85;;;;;;;22.34;53.90;101272.72;4938807;29;20477;-79
2021/08/19 05:19:44;;;;;;;1.30;1.13;;;;;;;22.37;54.00;101272.66;4907190;29;20023;-79
2021/08/19 05:22:09;;;;;;;1.48;1.13;;;;;;;22.37;54.05;101283.22;4938729;29;20035;-78
2021/08/19 05:24:34;;;;;;;1.52;0.98;;;;;;;22.35;54.04;101274.44;4955798;29;20486;-79
2021/08/19 05:26:59;;;;;;;1.40;0.80;;;;;;;22.36;54.05;101286.72;4938693;29;20035;-78
2021/08/19 05:29:25;;;;;;;1.08;0.85;;;;;;;22.35;54.07;101282.34;4956054;29;20078;-79
2021/08/19 05:31:50;;;;;;;1.45;1.05;;;;;;;22.37;53.75;101293.75;4922686;29;20036;-77
2021/08/19 05:34:16;;;;;;;1.70;0.90;;;;;;;22.34;53.89;101293.78;4938311;29;20067;-77
2021/08/19 05:36:41;;;;;;;1.63;1.25;;;;;;;22.37;54.02;101296.38;4939127;29;20032;-78
2021/08/19 05:39:07;;;;;;;1.35;0.93;;;;;;;22.34;54.08;101282.38;4924798;29;20031;-79
2021/08/19 05:41:32;;;;;;;1.17;0.90;;;;;;;22.37;54.05;101298.16;4943151;29;20095;-78
2021/08/19 05:43:58;;;;;;;1.40;1.05;;;;;;;22.34;54.13;101293.78;4940167;29;20054;-77
2021/08/19 05:46:23;;;;;;;1.13;0.80;;;;;;;22.37;54.15;101292.88;4941436;29;20062;-78
2021/08/19 05:48:49;;;;;;;1.52;1.00;;;;;;;22.36;54.07;101307.81;4910650;29;20422;-77
2021/08/19 05:51:14;;;;;;;1.55;1.00;;;;;;;22.37;54.12;101298.16;4925338;29;20034;-77
2021/08/19 05:53:41;;;;;;;1.15;0.70;;;;;;;22.33;54.22;101291.19;4960614;28;20027;-78
2021/08/19 05:56:06;;;;;;;1.13;0.82;;;;;;;22.36;54.15;101301.66;4928803;29;20031;-79
2021/08/19 05:58:32;;;;;;;1.60;1.30;;;;;;;22.34;54.14;101290.28;4944045;29;20102;-79
2021/08/19 06:00:57;;;;;;;1.90;1.10;;;;;;;22.36;54.09;101301.66;4927283;29;20042;-78
2021/08/19 06:03:23;;;;;;;1.25;0.90;;;;;;;22.33;54.04;101299.09;4943130;29;20086;-79
2021/08/19 06:05:49;;;;;;;1.50;1.10;;;;;;;22.34;54.11;101295.53;4927233;29;20110;-79
2021/08/19 06:08:14;;;;;;;1.10;0.80;;;;;;;22.35;54.14;101300.81;4926957;29;20024;-79
2021/08/19 06:10:41;;;;;;;0.80;0.70;;;;;;;22.36;54.06;101301.66;4927828;29;20378;-79
2021/08/19 06:13:06;;;;;;;1.77;1.13;;;;;;;22.37;54.02;101306.06;4943089;29;20374;-79
2021/08/19 06:15:32;;;;;;;0.90;0.70;;;;;;;22.37;54.08;101303.41;4927620;29;20034;-79
2021/08/19 06:17:57;;;;;;;1.40;1.10;;;;;;;22.31;54.11;101292.97;4961169;29;20032;-79
2021/08/19 06:20:23;;;;;;;1.13;0.77;;;;;;;22.35;54.16;101300.81;4929678;29;20031;-78
2021/08/19 06:22:51;;;;;;;1.38;0.90;;;;;;;22.36;54.34;101305.19;4962629;29;20107;-79
2021/08/19 06:25:16;;;;;;;1.35;1.02;;;;;;;22.36;54.02;101297.28;4960999;29;20433;-78
2021/08/19 06:27:42;;;;;;;1.17;0.80;;;;;;;22.36;54.03;101306.94;4962192;29;20035;-78
2021/08/19 06:30:07;;;;;;;1.30;0.98;;;;;;;22.35;54.13;101306.06;4929546;29;20126;-79
2021/08/19 06:32:33;;;;;;;1.23;0.88;;;;;;;22.33;54.05;101299.94;4944848;29;20034;-78
2021/08/19 06:34:58;;;;;;;1.35;1.13;;;;;;;22.36;54.10;101304.31;4962384;29;20373;-78
2021/08/19 06:37:23;;;;;;;1.88;1.17;;;;;;;22.36;54.00;101310.44;4944942;29;20030;-78
2021/08/19 06:39:49;;;;;;;1.92;1.27;;;;;;;22.33;54.03;101302.56;4928075;29;20113;-78
2021/08/19 06:42:14;;;;;;;1.30;0.90;;;;;;;22.36;54.13;101313.09;4928026;29;20114;-79
2021/08/19 06:44:39;;;;;;;2.17;1.00;;;;;;;22.34;54.13;101311.34;4943337;29;20043;-79
2021/08/19 06:47:05;;;;;;;3.35;1.08;;;;;;;22.36;54.27;101310.44;4961107;29;20115;-78
2021/08/19 06:49:30;;;;;;;1.52;1.20;;;;;;;22.34;54.14;101306.97;4927582;29;20031;-78
2021/08/19 06:51:56;;;;;;;1.75;1.23;;;;;;;22.31;54.05;101304.38;4927713;29;20042;-79
2021/08/19 06:54:21;;;;;;;1.80;1.23;;;;;;;22.35;54.16;101303.44;4960191;29;20087;-78
2021/08/19 06:56:46;;;;;;;1.27;1.00;;;;;;;22.35;54.19;101306.06;4943105;29;20049;-79
2021/08/19 06:59:12;;;;;;;1.98;1.30;;;;;;;22.36;54.14;101302.53;4943439;29;20023;-79
2021/08/19 07:01:37;;;;;;;1.63;1.10;;;;;;;22.36;54.17;101314.84;4927399;29;20082;-78
2021/08/19 07:04:03;;;;;;;1.48;1.20;;;;;;;22.31;54.31;101299.13;4942189;29;20038;-79
2021/08/19 07:06:28;;;;;;;1.85;1.15;;;;;;;22.35;54.20;101307.84;4940588;29;20031;-73
2021/08/19 07:08:53;;;;;;;1.30;0.90;;;;;;;22.35;54.15;101313.09;4940474;29;20037;-72
2021/08/19 07:11:19;;;;;;;1.35;1.00;;;;;;;22.35;54.21;101310.47;4940563;29;20035;-73
2021/08/19 07:13:44;;;;;;;1.40;0.95;;;;;;;22.32;54.21;101306.13;4957661;29;20024;-73
2021/08/19 07:16:09;;;;;;;1.27;1.00;;;;;;;22.30;54.14;101312.31;4940332;29;20069;-73
2021/08/19 07:18:35;;;;;;;1.60;1.20;;;;;;;22.35;54.20;101313.97;4940158;29;20031;-73
2021/08/19 07:21:00;;;;;;;1.40;1.00;;;;;;;22.35;54.19;101321.00;4957310;29;20067;-73
2021/08/19 07:23:25;;;;;;;1.52;1.30;;;;;;;22.31;54.22;101311.44;4957427;29;19914;-73
2021/08/19 07:25:52;;;;;;;1.45;0.95;;;;;;;22.32;54.28;101314.03;4940220;29;20035;-73
2021/08/19 07:28:17;;;;;;;1.90;1.25;;;;;;;22.31;54.15;101311.44;4940663;29;20031;-73
2021/08/19 07:30:42;;;;;;;1.50;0.90;;;;;;;22.36;54.10;101325.38;4959075;29;20031;-73
2021/08/19 07:33:11;;;;;;;1.80;1.05;;;;;;;22.35;54.17;101327.16;4959419;29;20051;-73
2021/08/19 07:35:36;;;;;;;1.30;1.20;;;;;;;22.31;54.11;101316.69;4957189;29;20031;-78
2021/08/19 07:38:01;;;;;;;1.92;1.35;;;;;;;22.34;54.16;101325.41;4927417;29;20026;-79
2021/08/19 07:40:31;;;;;;;1.98;1.23;;;;;;;22.34;54.23;101322.78;4960753;29;20086;-79
2021/08/19 07:42:57;;;;;;;1.30;1.10;;;;;;;22.31;54.23;101322.84;4960037;29;20387;-78
2021/08/19 07:45:25;;;;;;;1.10;0.85;;;;;;;22.34;54.23;101325.41;4959705;29;20034;-78
2021/08/19 07:47:50;;;;;;;1.42;1.15;;;;;;;22.34;54.30;101329.81;4959332;29;20114;-79
2021/08/19 07:50:16;;;;;;;1.30;0.93;;;;;;;22.34;54.23;101333.31;4942421;29;20059;-78
2021/08/19 07:52:42;;;;;;;1.35;1.00;;;;;;;22.35;54.20;101332.41;4960228;29;20027;-78
2021/08/19 07:55:09;;;;;;;1.88;1.20;;;;;;;22.32;54.22;101326.34;4945683;29;20034;-78
2021/08/19 07:57:46;;;;;;;1.58;1.30;;;;;;;22.34;54.29;101341.22;4943999;29;20038;-79
2021/08/19 08:00:13;;;;;;;1.98;1.20;;;;;;;22.32;54.30;101336.88;4942627;29;20035;-79
2021/08/19 08:02:39;;;;;;;1.50;1.10;;;;;;;22.33;54.07;101338.63;4926546;29;20389;-79
2021/08/19 08:05:06;;;;;;;1.92;1.30;;;;;;;22.34;54.30;101349.13;4942417;29;20023;-79
2021/08/19 08:07:31;;;;;;;3.22;1.58;;;;;;;22.26;54.25;101327.28;4926880;29;20073;-78
2021/08/19 08:09:57;;;;;;;1.52;1.00;;;;;;;22.30;54.26;101336.91;4958533;29;20023;-78
2021/08/19 08:12:22;;;;;;;1.60;1.23;;;;;;;22.23;54.36;101329.06;4925528;29;20236;-79
2021/08/19 08:14:50;;;;;;;1.55;1.40;;;;;;;22.34;54.16;101350.88;4909187;28;20023;-78
2021/08/19 08:17:17;;;;;;;1.63;1.17;;;;;;;22.33;54.30;101354.44;4939997;29;20031;-78
2021/08/19 08:19:43;;;;;;;1.98;1.17;;;;;;;22.34;54.45;101359.66;4940274;29;20126;-79
2021/08/19 08:22:08;;;;;;;2.33;1.20;;;;;;;22.34;54.30;101356.16;4924717;29;20063;-79
2021/08/19 08:24:34;;;;;;;2.10;1.17;;;;;;;22.34;54.33;101357.03;4957785;29;20470;-79
2021/08/19 08:26:59;;;;;;;1.88;1.15;;;;;;;22.34;54.50;101356.16;4940347;29;20059;-79
2021/08/19 08:29:25;;;;;;;1.90;1.48;;;;;;;22.35;54.51;101365.81;4940191;29;20046;-78
2021/08/19 08:31:51;;;;;;;1.27;1.17;;;;;;;22.33;54.58;101357.06;4908836;29;20027;-78
2021/08/19 08:34:16;;;;;;;1.67;1.05;;;;;;;22.31;54.42;101364.13;4956759;29;20379;-78
2021/08/19 08:36:42;;;;;;;1.92;1.33;;;;;;;22.31;54.34;101365.00;4957019;29;20037;-72
2021/08/19 08:39:10;;;;;;;1.52;1.10;;;;;;;22.29;54.49;101358.00;4956435;29;20046;-73
2021/08/19 08:41:39;;;;;;;2.22;0.90;;;;;;;22.25;54.48;101357.16;4923624;29;20034;-78
2021/08/19 08:44:05;;;;;;;2.08;1.50;;;;;;;22.28;54.38;101366.78;4940201;29;20023;-77
2021/08/19 08:46:33;;;;;;;1.98;1.38;;;;;;;22.32;54.43;101379.03;4938737;29;20114;-73
2021/08/19 08:49:00;;;;;;;1.63;1.30;;;;;;;22.28;54.51;101370.28;4956616;29;20027;-79
2021/08/19 08:51:26;;;;;;;1.75;1.25;;;;;;;22.34;54.43;101383.38;4923467;29;20122;-78
2021/08/19 08:53:51;;;;;;;1.77;1.23;;;;;;;22.34;54.21;101379.88;4956269;29;20426;-78
2021/08/19 08:56:17;;;;;;;1.83;1.15;;;;;;;22.31;54.44;101377.28;4939508;29;20045;-78
2021/08/19 08:58:42;;;;;;;1.70;1.30;;;;;;;22.33;54.44;101384.25;4922893;29;20027;-73
2021/08/19 09:01:07;;;;;;;2.78;1.33;;;;;;;22.34;54.46;101379.88;4957259;29;20043;-73
2021/08/19 09:03:34;;;;;;;1.55;1.23;;;;;;;22.31;54.48;101382.56;4939395;29;20053;-73
2021/08/19 09:05:59;;;;;;;2.30;1.17;;;;;;;22.31;54.38;101386.06;4909268;29;20038;-77
2021/08/19 09:08:26;;;;;;;1.50;1.30;;;;;;;22.32;54.49;101385.19;4940691;29;20027;-79
2021/08/19 09:10:57;;;;;;;2.28;1.42;;;;;;;22.33;54.46;101386.91;4925302;29;20478;-77
2021/08/19 09:13:26;;;;;;;1.58;1.25;;;;;;;22.24;54.48;101371.22;4957946;29;20428;-78
2021/08/19 09:15:53;;;;;;;1.60;1.50;;;;;;;22.33;54.41;101391.31;4956864;29;20035;-78
2021/08/19 09:18:34;;;;;;;1.63;1.17;;;;;;;22.33;54.29;101391.31;4957042;29;20110;-78
2021/08/19 09:21:00;;;;;;;1.48;1.10;;;;;;;22.34;54.35;101395.69;4940426;29;20413;-78
2021/08/19 09:23:27;;;;;;;1.33;1.00;;;;;;;22.33;54.52;101392.16;4956744;29;20177;-78
2021/08/19 09:25:52;;;;;;;1.40;1.25;;;;;;;22.31;54.50;101390.47;4939453;29;20109;-78
2021/08/19 09:28:30;;;;;;;1.48;1.02;;;;;;;22.29;54.46;101381.72;4927124;29;20046;-78
2021/08/19 09:30:58;;;;;;;2.08;1.38;;;;;;;22.34;54.45;101383.38;4943475;29;20500;-78
2021/08/19 09:33:25;;;;;;;1.50;1.30;;;;;;;22.27;54.46;101378.22;4943540;29;20059;-77
2021/08/19 09:35:53;;;;;;;1.85;1.70;;;;;;;22.33;54.44;101392.16;4943886;29;20454;-77
2021/08/19 09:38:24;;;;;;;2.70;1.25;;;;;;;22.30;54.36;101388.72;4943310;29;20455;-78
2021/08/19 09:41:08;;;;;;;1.73;1.20;;;;;;;22.31;54.39;101393.97;4960340;29;20038;-78
2021/08/19 09:43:45;;;;;;;1.30;1.02;;;;;;;22.31;54.54;101393.09;4960120;29;20070;-77
2021/08/19 09:46:12;;;;;;;1.45;1.00;;;;;;;22.29;54.37;101387.84;4960758;29;20370;-78
2021/08/19 09:48:38;;;;;;;2.08;1.52;;;;;;;22.28;54.53;101388.75;4960438;29;20023;-77
2021/08/19 09:51:18;;;;;;;1.65;1.13;;;;;;;22.35;54.39;101400.06;4943080;29;20385;-78
2021/08/19 09:53:50;;;;;;;1.33;1.00;;;;;;;22.32;54.56;101392.22;4959990;29;20525;-79
2021/08/19 09:56:37;;;;;;;1.60;1.20;;;;;;;22.34;54.69;101398.31;4942320;29;20031;-79
2021/08/19 09:59:24;;;;;;;1.58;1.25;;;;;;;22.33;54.48;101391.31;4942193;29;20052;-79
2021/08/19 10:01:52;;;;;;;1.85;1.25;;;;;;;22.34;54.59;101399.19;4942211;29;20031;-79
2021/08/19 10:04:18;;;;;;;1.60;1.25;;;;;;;22.33;54.79;101401.88;4942435;29;20027;-79
2021/08/19 10:06:44;;;;;;;1.77;1.30;;;;;;;22.29;54.44;101395.75;4961238;29;20074;-79
2021/08/19 10:09:11;;;;;;;1.65;1.40;;;;;;;22.33;54.58;101397.44;4961640;29;20144;-78
2021/08/19 10:11:39;;;;;;;1.60;1.20;;;;;;;22.33;54.41;101397.44;4943769;29;20062;-78
2021/08/19 10:14:05;;;;;;;1.95;1.63;;;;;;;22.33;54.56;101400.06;4961293;29;20429;-78
2021/08/19 10:16:31;;;;;;;2.35;1.65;;;;;;;22.30;54.54;101394.88;4960564;29;20031;-78
2021/08/19 10:19:02;;;;;;;1.92;1.42;;;;;;;22.31;54.68;101387.84;4960418;29;20031;-79
2021/08/19 10:21:28;;;;;;;3.13;1.13;;;;;;;22.30;54.52;101400.13;4943309;29;20398;-79
2021/08/19 10:23:56;;;;;;;1.75;0.90;;;;;;;22.33;54.60;101397.44;4927993;29;20034;-79
2021/08/19 10:26:23;;;;;;;2.53;1.50;;;;;;;22.33;54.65;101400.06;4960683;29;20038;-78
2021/08/19 10:28:57;;;;;;;1.75;1.45;;;;;;;22.32;54.60;101403.63;4942900;29;20034;-78
2021/08/19 10:31:43;;;;;;;1.50;1.10;;;;;;;22.33;54.62;101407.97;4959924;29;20434;-79
2021/08/19 10:34:17;;;;;;;1.58;1.20;;;;;;;22.30;54.58;101394.88;4959444;29;20083;-79
2021/08/19 10:36:45;;;;;;;2.08;1.50;;;;;;;22.32;54.30;101401.00;4942709;29;20073;-79
2021/08/19 10:39:19;;;;;;;1.55;1.05;;;;;;;22.32;54.68;101406.25;4958513;28;20034;-79
2021/08/19 10:41:57;;;;;;;4.00;1.40;;;;;;;22.30;54.86;101405.41;4942093;29;20122;-79
2021/08/19 10:44:32;;;;;;;1.75;1.30;;;;;;;22.30;54.94;101404.53;4942649;29;20019;-78
2021/08/19 10:46:58;;;;;;;2.67;1.27;;;;;;;22.30;54.71;101400.13;4959657;29;20492;-78
2021/08/19 10:49:30;;;;;;;2.30;1.45;;;;;;;22.31;54.79;101401.88;4959775;29;20027;-77
2021/08/19 10:51:56;;;;;;;2.42;1.63;;;;;;;22.26;54.59;101395.78;4958828;29;20054;-79
2021/08/19 10:54:34;;;;;;;2.97;2.67;;;;;;;22.31;54.73;101407.16;4959107;29;20043;-78
2021/08/19 10:57:30;;;;;;;2.50;1.83;;;;;;;22.32;54.70;101413.28;4941816;29;20027;-79
2021/08/19 11:00:10;;;;;;;2.08;1.35;;;;;;;22.32;54.74;101411.53;4942418;29;20035;-78
2021/08/19 11:02:42;;;;;;;2.95;2.03;;;;;;;22.32;54.79;101418.56;4957999;29;20032;-72
2021/08/19 11:05:36;;;;;;;1.65;1.00;;;;;;;22.30;54.73;101413.31;4957669;29;20537;-73
2021/08/19 11:08:04;;;;;;;2.75;1.30;;;;;;;22.31;54.71;101414.19;4957637;29;20106;-78
2021/08/19 11:10:32;;;;;;;2.22;1.13;;;;;;;22.31;54.66;101412.41;4958444;29;20500;-78
2021/08/19 11:13:06;;;;;;;2.42;1.50;;;;;;;22.23;54.59;101397.56;4958106;29;20035;-77
2021/08/19 11:15:36;;;;;;;1.42;1.20;;;;;;;22.26;54.61;101401.06;4958236;29;20037;-77
2021/08/19 11:18:01;;;;;;;1.63;1.20;;;;;;;22.27;54.85;101408.06;4941425;29;20035;-78
2021/08/19 11:20:32;;;;;;;1.90;1.30;;;;;;;22.30;54.70;101418.56;4958010;29;20031;-79
2021/08/19 11:23:03;;;;;;;1.90;1.50;;;;;;;22.31;54.58;101414.19;4940773;29;20114;-79